Time,TemperatureF,DewpointF,PressureIn,WindDirection,WindDirectionDegrees,WindSpeedMPH,WindSpeedGustMPH,Humidity,HourlyPrecipIn,Conditions,Clouds,dailyrainin,SoftwareType,DateUTC
2013-07-14 00:00:00,76.8,75.0,29.99,SE,130,3.0,7.0,93,0.00,,,0.00,weatherlink.com 1.10,2013-07-14 04:00:00,
2013-07-14 00:15:00,76.7,75.0,29.99,ESE,115,2.0,8.0,93,0.00,,,0.00,weatherlink.com 1.10,2013-07-14 04:15:00,
2013-07-14 00:30:00,76.5,75.0,29.99,SE,146,1.0,8.0,94,0.00,,,0.00,weatherlink.com 1.10,2013-07-14 04:30:00,
2013-07-14 00:45:00,76.3,75.0,29.99,SE,146,3.0,7.0,94,0.00,,,0.00,weatherlink.com 1.10,2013-07-14 04:45:00,
2013-07-14 01:00:00,76.2,74.0,29.99,SE,127,2.0,7.0,94,0.00,,,0.00,weatherlink.com 1.10,2013-07-14 05:00:00,
2013-07-14 01:15:00,76.2,74.0,29.99,SE,138,2.0,8.0,94,0.00,,,0.00,weatherlink.com 1.10,2013-07-14 05:15:00,
2013-07-14 01:30:00,76.0,74.0,30.00,SE,142,4.0,6.0,94,0.00,,,0.00,weatherlink.com 1.10,2013-07-14 05:30:00,
2013-07-14 01:45:00,75.8,74.0,29.99,ENE,77,3.0,7.0,95,0.00,,,0.00,weatherlink.com 1.10,2013-07-14 05:45:00,
2013-07-14 02:00:00,75.5,74.0,29.99,SSE,155,1.0,6.0,95,0.00,,,0.00,weatherlink.com 1.10,2013-07-14 06:00:00,
2013-07-14 02:15:00,75.3,74.0,29.98,SSE,159,2.0,4.0,96,0.00,,,0.00,weatherlink.com 1.10,2013-07-14 06:15:00,
2013-07-14 02:30:00,75.1,74.0,29.98,South,178,0.0,5.0,96,0.00,,,0.00,weatherlink.com 1.10,2013-07-14 06:30:00,
2013-07-14 02:45:00,75.0,74.0,29.97,SSE,162,0.0,4.0,96,0.00,,,0.00,weatherlink.com 1.10,2013-07-14 06:45:00,
2013-07-14 03:00:00,75.0,74.0,29.97,SSE,163,0.0,3.0,96,0.00,,,0.00,weatherlink.com 1.10,2013-07-14 07:00:00,
2013-07-14 03:15:00,75.0,74.0,29.97,SSE,162,1.0,6.0,96,0.00,,,0.00,weatherlink.com 1.10,2013-07-14 07:15:00,
2013-07-14 03:30:00,74.9,74.0,29.98,SW,222,0.0,2.0,97,0.00,,,0.00,weatherlink.com 1.10,2013-07-14 07:30:00,
2013-07-14 03:45:00,74.8,74.0,29.97,SE,134,2.0,3.0,97,0.00,,,0.00,weatherlink.com 1.10,2013-07-14 07:45:00,
2013-07-14 04:00:00,74.9,74.0,29.97,SSE,161,1.0,5.0,97,0.00,,,0.00,weatherlink.com 1.10,2013-07-14 08:00:00,
2013-07-14 04:15:00,74.7,74.0,29.97,ENE,66,0.0,3.0,97,0.00,,,0.00,weatherlink.com 1.10,2013-07-14 08:15:00,
2013-07-14 04:30:00,74.6,74.0,29.97,SE,141,0.0,3.0,97,0.00,,,0.00,weatherlink.com 1.10,2013-07-14 08:30:00,
2013-07-14 04:45:00,74.3,74.0,29.97,SE,143,0.0,0.0,98,0.00,,,0.00,weatherlink.com 1.10,2013-07-14 08:45:00,
2013-07-14 05:00:00,74.3,74.0,29.97,SE,128,0.0,2.0,98,0.00,,,0.00,weatherlink.com 1.10,2013-07-14 09:00:00,
2013-07-14 05:15:00,74.2,74.0,29.98,SE,135,0.0,2.0,98,0.00,,,0.00,weatherlink.com 1.10,2013-07-14 09:15:00,
2013-07-14 05:31:00,74.1,74.0,29.98,SE,138,0.0,1.0,98,0.00,,,0.00,weatherlink.com 1.10,2013-07-14 09:31:00,
2013-07-14 05:46:00,74.0,74.0,29.97,NE,39,0.0,2.0,99,0.00,,,0.00,weatherlink.com 1.10,2013-07-14 09:46:00,
2013-07-14 06:01:00,74.1,74.0,29.98,ESE,117,0.0,0.0,99,0.00,,,0.00,weatherlink.com 1.10,2013-07-14 10:01:00,
2013-07-14 06:16:00,74.3,74.0,29.98,South,186,2.0,4.0,99,0.00,,,0.00,weatherlink.com 1.10,2013-07-14 10:16:00,
2013-07-14 06:31:00,74.5,74.0,29.99,SE,134,3.0,5.0,99,0.00,,,0.00,weatherlink.com 1.10,2013-07-14 10:31:00,
2013-07-14 06:46:00,74.4,74.0,29.99,NE,37,2.0,6.0,99,0.00,,,0.00,weatherlink.com 1.10,2013-07-14 10:46:00,
2013-07-14 07:01:00,74.3,74.0,30.00,SSE,155,3.0,5.0,98,0.00,,,0.00,weatherlink.com 1.10,2013-07-14 11:01:00,
2013-07-14 07:16:00,75.0,74.0,30.00,SSE,162,0.0,3.0,97,0.00,,,0.00,weatherlink.com 1.10,2013-07-14 11:16:00,
2013-07-14 07:31:00,75.7,75.0,30.00,ENE,73,0.0,4.0,97,0.00,,,0.00,weatherlink.com 1.10,2013-07-14 11:31:00,
2013-07-14 07:46:00,76.1,75.0,30.00,North,351,1.0,5.0,96,0.00,,,0.00,weatherlink.com 1.10,2013-07-14 11:46:00,
2013-07-14 08:01:00,76.5,75.0,30.00,East,101,1.0,6.0,95,0.00,,,0.00,weatherlink.com 1.10,2013-07-14 12:01:00,
2013-07-14 08:16:00,77.1,75.0,30.02,ENE,77,2.0,10.0,93,0.00,,,0.00,weatherlink.com 1.10,2013-07-14 12:16:00,
2013-07-14 08:31:00,78.3,76.0,30.02,SE,143,1.0,7.0,92,0.00,,,0.00,weatherlink.com 1.10,2013-07-14 12:31:00,
2013-07-14 08:46:00,79.2,76.0,30.02,ESE,118,2.0,5.0,89,0.00,,,0.00,weatherlink.com 1.10,2013-07-14 12:46:00,
2013-07-14 09:01:00,79.2,76.0,30.03,SSW,192,4.0,6.0,89,0.00,,,0.00,weatherlink.com 1.10,2013-07-14 13:01:00,
2013-07-14 09:16:00,79.4,76.0,30.04,SSW,200,1.0,4.0,89,0.00,,,0.00,weatherlink.com 1.10,2013-07-14 13:16:00,
2013-07-14 09:31:00,80.0,77.0,30.05,SSE,155,2.0,4.0,90,0.00,,,0.00,weatherlink.com 1.10,2013-07-14 13:31:00,
2013-07-14 09:46:00,81.9,77.0,30.05,SSW,197,3.0,3.0,86,0.00,,,0.00,weatherlink.com 1.10,2013-07-14 13:46:00,
2013-07-14 10:01:00,81.2,77.0,30.05,South,188,2.0,5.0,87,0.00,,,0.00,weatherlink.com 1.10,2013-07-14 14:01:00,
2013-07-14 10:16:00,81.0,77.0,30.05,SE,136,2.0,5.0,88,0.00,,,0.00,weatherlink.com 1.10,2013-07-14 14:16:00,
2013-07-14 10:31:00,81.2,77.0,30.05,SW,220,0.0,6.0,88,0.00,,,0.00,weatherlink.com 1.10,2013-07-14 14:31:00,
2013-07-14 10:46:00,82.8,78.0,30.05,SSE,149,0.0,4.0,85,0.00,,,0.00,weatherlink.com 1.10,2013-07-14 14:46:00,
2013-07-14 11:06:00,84.1,78.0,30.05,SW,226,1.0,5.0,81,0.00,,,0.00,weatherlink.com 1.10,2013-07-14 15:06:00,
2013-07-14 11:20:00,84.2,78.0,30.05,SE,138,0.0,3.0,82,0.00,,,0.00,weatherlink.com 1.10,2013-07-14 15:20:00,
2013-07-14 11:40:00,84.7,78.0,30.06,South,185,4.0,5.0,81,0.00,,,0.00,weatherlink.com 1.10,2013-07-14 15:40:00,
2013-07-14 11:58:00,84.8,79.0,30.06,SW,223,1.0,3.0,82,0.00,,,0.00,weatherlink.com 1.10,2013-07-14 15:58:00,
2013-07-14 12:16:00,85.2,78.0,30.05,ENE,68,0.0,4.0,80,0.00,,,0.00,weatherlink.com 1.10,2013-07-14 16:16:00,
2013-07-14 12:34:00,86.0,78.0,30.06,SW,214,1.0,5.0,78,0.00,,,0.00,weatherlink.com 1.10,2013-07-14 16:34:00,
2013-07-14 12:54:00,87.1,78.0,30.06,South,188,1.0,6.0,73,0.00,,,0.00,weatherlink.com 1.10,2013-07-14 16:54:00,
2013-07-14 13:12:00,88.1,78.0,30.06,WSW,242,1.0,4.0,72,0.00,,,0.00,weatherlink.com 1.10,2013-07-14 17:12:00,
2013-07-14 13:30:00,86.9,79.0,30.05,ENE,73,5.0,7.0,76,0.00,,,0.00,weatherlink.com 1.10,2013-07-14 17:30:00,
2013-07-14 13:50:00,84.2,77.0,30.05,NW,316,0.0,4.0,80,0.00,,,0.00,weatherlink.com 1.10,2013-07-14 17:50:00,
2013-07-14 14:08:00,82.9,77.0,30.05,NNW,329,0.0,2.0,82,0.00,,,0.00,weatherlink.com 1.10,2013-07-14 18:08:00,
2013-07-14 14:26:00,84.3,78.0,30.05,NNE,28,4.0,6.0,80,0.00,,,0.00,weatherlink.com 1.10,2013-07-14 18:26:00,
2013-07-14 14:46:00,84.1,77.0,30.04,NNW,329,0.0,4.0,79,0.00,,,0.00,weatherlink.com 1.10,2013-07-14 18:46:00,
2013-07-14 15:04:00,86.3,78.0,30.04,ENE,76,0.0,1.0,76,0.00,,,0.00,weatherlink.com 1.10,2013-07-14 19:04:00,
2013-07-14 15:22:00,87.8,77.0,30.03,SW,219,1.0,5.0,70,0.00,,,0.00,weatherlink.com 1.10,2013-07-14 19:22:00,
2013-07-14 15:42:00,88.2,76.0,30.04,SE,143,1.0,7.0,67,0.00,,,0.00,weatherlink.com 1.10,2013-07-14 19:42:00,
2013-07-14 16:00:00,90.3,78.0,30.03,West,269,1.0,5.0,67,0.00,,,0.00,weatherlink.com 1.10,2013-07-14 20:00:00,
2013-07-14 16:18:00,90.5,77.0,30.03,ESE,121,2.0,5.0,65,0.00,,,0.00,weatherlink.com 1.10,2013-07-14 20:18:00,
2013-07-14 16:36:00,88.1,77.0,30.03,NE,48,1.0,7.0,70,0.00,,,0.00,weatherlink.com 1.10,2013-07-14 20:36:00,
2013-07-14 16:55:00,84.9,75.0,30.02,SSW,207,5.0,6.0,72,0.00,,,0.00,weatherlink.com 1.10,2013-07-14 20:55:00,
2013-07-14 17:13:00,85.4,75.0,30.03,SE,135,0.0,3.0,71,0.00,,,0.00,weatherlink.com 1.10,2013-07-14 21:13:00,
2013-07-14 17:32:00,84.0,76.0,30.03,NNW,329,2.0,3.0,77,0.00,,,0.00,weatherlink.com 1.10,2013-07-14 21:32:00,
2013-07-14 17:50:00,83.0,76.0,30.04,South,184,2.0,4.0,79,0.00,,,0.00,weatherlink.com 1.10,2013-07-14 21:50:00,
2013-07-14 18:08:00,81.3,77.0,30.04,East,101,0.0,3.0,86,0.02,,,0.02,weatherlink.com 1.10,2013-07-14 22:08:00,
2013-07-14 18:27:00,81.2,77.0,30.03,SW,214,0.0,1.0,87,0.02,,,0.02,weatherlink.com 1.10,2013-07-14 22:27:00,
2013-07-14 18:45:00,81.6,77.0,30.04,East,101,0.0,3.0,85,0.02,,,0.02,weatherlink.com 1.10,2013-07-14 22:45:00,
2013-07-14 19:05:00,81.5,76.0,30.04,SW,226,2.0,4.0,84,0.00,,,0.02,weatherlink.com 1.10,2013-07-14 23:05:00,
2013-07-14 19:23:00,80.7,75.0,30.04,SE,136,1.0,5.0,83,0.00,,,0.02,weatherlink.com 1.10,2013-07-14 23:23:00,
2013-07-14 19:41:00,80.1,75.0,30.05,SSE,159,1.0,6.0,83,0.00,,,0.02,weatherlink.com 1.10,2013-07-14 23:41:00,
2013-07-14 19:59:00,79.7,74.0,30.05,SSW,195,1.0,5.0,83,0.00,,,0.02,weatherlink.com 1.10,2013-07-14 23:59:00,
2013-07-14 20:19:00,79.5,75.0,30.06,SE,134,3.0,5.0,87,0.00,,,0.02,weatherlink.com 1.10,2013-07-15 00:19:00,
2013-07-14 20:37:00,78.9,75.0,30.06,SSE,147,2.0,4.0,88,0.00,,,0.02,weatherlink.com 1.10,2013-07-15 00:37:00,
2013-07-14 20:55:00,78.5,75.0,30.07,ENE,69,2.0,4.0,88,0.00,,,0.02,weatherlink.com 1.10,2013-07-15 00:55:00,
2013-07-14 21:14:00,78.2,74.0,30.07,ENE,59,2.0,3.0,88,0.00,,,0.02,weatherlink.com 1.10,2013-07-15 01:14:00,
2013-07-14 21:28:00,78.1,75.0,30.07,NE,56,1.0,2.0,89,0.00,,,0.02,weatherlink.com 1.10,2013-07-15 01:28:00,
2013-07-14 21:43:00,78.3,75.0,30.08,NE,51,0.0,3.0,88,0.00,,,0.02,weatherlink.com 1.10,2013-07-15 01:43:00,
2013-07-14 21:58:00,78.0,75.0,30.07,NE,49,4.0,5.0,90,0.00,,,0.02,weatherlink.com 1.10,2013-07-15 01:58:00,
2013-07-14 22:13:00,78.0,75.0,30.07,ENE,60,2.0,6.0,91,0.00,,,0.02,weatherlink.com 1.10,2013-07-15 02:13:00,
2013-07-14 22:28:00,77.7,75.0,30.08,ENE,75,2.0,6.0,90,0.00,,,0.02,weatherlink.com 1.10,2013-07-15 02:28:00,
2013-07-14 22:43:00,77.3,74.0,30.09,SSE,163,0.0,5.0,90,0.00,,,0.02,weatherlink.com 1.10,2013-07-15 02:43:00,
2013-07-14 22:58:00,77.2,75.0,30.09,SSW,198,2.0,8.0,91,0.00,,,0.02,weatherlink.com 1.10,2013-07-15 02:58:00,
2013-07-14 23:13:00,76.2,74.0,30.08,ESE,111,2.0,6.0,91,0.00,,,0.02,weatherlink.com 1.10,2013-07-15 03:13:00,
2013-07-14 23:28:00,75.7,73.0,30.09,ESE,118,2.0,7.0,92,0.00,,,0.02,weatherlink.com 1.10,2013-07-15 03:28:00,
2013-07-14 23:43:00,75.6,74.0,30.08,SSE,153,0.0,5.0,93,0.00,,,0.02,weatherlink.com 1.10,2013-07-15 03:43:00,
2013-07-14 23:58:00,75.4,73.0,30.09,SW,223,1.0,6.0,92,0.00,,,0.02,weatherlink.com 1.10,2013-07-15 03:58:00,